sensor_id;sensor_type;location;lat;lon;timestamp;P1;durP1;ratioP1;P2;durP2;ratioP2
63316;SDS011;49822;41.468;13.560;2022-12-18T00:02:00;27.90;;;18.85;;
63316;SDS011;49822;41.468;13.560;2022-12-18T00:04:28;41.80;;;30.73;;
63316;SDS011;49822;41.468;13.560;2022-12-18T00:06:55;36.25;;;26.55;;
63316;SDS011;49822;41.468;13.560;2022-12-18T00:09:23;22.70;;;10.90;;
63316;SDS011;49822;41.468;13.560;2022-12-18T00:12:05;20.55;;;10.77;;
63316;SDS011;49822;41.468;13.560;2022-12-18T00:14:41;21.05;;;8.15;;
63316;SDS011;49822;41.468;13.560;2022-12-18T00:17:09;19.48;;;8.63;;
63316;SDS011;49822;41.468;13.560;2022-12-18T00:19:36;27.00;;;12.35;;
63316;SDS011;49822;41.468;13.560;2022-12-18T00:22:04;25.48;;;11.82;;
63316;SDS011;49822;41.468;13.560;2022-12-18T00:24:33;24.80;;;11.63;;
63316;SDS011;49822;41.468;13.560;2022-12-18T00:27:00;22.92;;;10.27;;
63316;SDS011;49822;41.468;13.560;2022-12-18T00:29:27;17.17;;;9.45;;
63316;SDS011;49822;41.468;13.560;2022-12-18T00:31:55;28.30;;;14.85;;
63316;SDS011;49822;41.468;13.560;2022-12-18T00:34:23;20.35;;;10.05;;
63316;SDS011;49822;41.468;13.560;2022-12-18T00:36:51;21.65;;;9.80;;
63316;SDS011;49822;41.468;13.560;2022-12-18T00:39:20;21.27;;;10.30;;
63316;SDS011;49822;41.468;13.560;2022-12-18T00:41:47;19.30;;;9.82;;
63316;SDS011;49822;41.468;13.560;2022-12-18T00:44:33;17.00;;;8.82;;
63316;SDS011;49822;41.468;13.560;2022-12-18T00:47:01;17.45;;;9.05;;
63316;SDS011;49822;41.468;13.560;2022-12-18T00:49:29;20.48;;;9.95;;
63316;SDS011;49822;41.468;13.560;2022-12-18T00:51:56;17.80;;;10.02;;
63316;SDS011;49822;41.468;13.560;2022-12-18T00:54:24;16.77;;;8.60;;
63316;SDS011;49822;41.468;13.560;2022-12-18T00:56:52;14.95;;;8.32;;
63316;SDS011;49822;41.468;13.560;2022-12-18T00:59:22;19.88;;;8.90;;
63316;SDS011;49822;41.468;13.560;2022-12-18T01:01:49;18.75;;;9.00;;
63316;SDS011;49822;41.468;13.560;2022-12-18T01:04:19;16.08;;;8.32;;
63316;SDS011;49822;41.468;13.560;2022-12-18T01:06:46;15.52;;;8.52;;
63316;SDS011;49822;41.468;13.560;2022-12-18T01:09:14;16.23;;;8.93;;
63316;SDS011;49822;41.468;13.560;2022-12-18T01:11:41;26.33;;;9.98;;
63316;SDS011;49822;41.468;13.560;2022-12-18T01:14:09;19.02;;;8.30;;
63316;SDS011;49822;41.468;13.560;2022-12-18T01:16:37;15.10;;;7.72;;
63316;SDS011;49822;41.468;13.560;2022-12-18T01:19:04;25.85;;;9.90;;
63316;SDS011;49822;41.468;13.560;2022-12-18T01:21:32;18.08;;;9.00;;
63316;SDS011;49822;41.468;13.560;2022-12-18T01:24:02;15.80;;;8.82;;
63316;SDS011;49822;41.468;13.560;2022-12-18T01:26:30;19.95;;;8.43;;
63316;SDS011;49822;41.468;13.560;2022-12-18T01:28:58;18.80;;;8.07;;
63316;SDS011;49822;41.468;13.560;2022-12-18T01:31:27;17.52;;;8.18;;
63316;SDS011;49822;41.468;13.560;2022-12-18T01:33:57;19.65;;;9.93;;
63316;SDS011;49822;41.468;13.560;2022-12-18T01:36:32;19.35;;;9.40;;
63316;SDS011;49822;41.468;13.560;2022-12-18T01:39:02;17.95;;;9.15;;
63316;SDS011;49822;41.468;13.560;2022-12-18T01:41:32;22.00;;;8.80;;
63316;SDS011;49822;41.468;13.560;2022-12-18T01:48:10;25.80;;;9.85;;
63316;SDS011;49822;41.468;13.560;2022-12-18T01:53:33;36.88;;;16.05;;
63316;SDS011;49822;41.468;13.560;2022-12-18T01:55:40;35.40;;;14.30;;
63316;SDS011;49822;41.468;13.560;2022-12-18T01:58:14;29.23;;;12.45;;
63316;SDS011;49822;41.468;13.560;2022-12-18T02:03:37;26.23;;;10.40;;
63316;SDS011;49822;41.468;13.560;2022-12-18T02:27:37;26.27;;;12.35;;
63316;SDS011;49822;41.468;13.560;2022-12-18T02:30:08;27.75;;;10.57;;
63316;SDS011;49822;41.468;13.560;2022-12-18T02:32:40;26.77;;;10.68;;
63316;SDS011;49822;41.468;13.560;2022-12-18T02:35:15;22.58;;;11.27;;
63316;SDS011;49822;41.468;13.560;2022-12-18T02:37:50;29.95;;;12.52;;
63316;SDS011;49822;41.468;13.560;2022-12-18T02:40:19;29.73;;;14.00;;
63316;SDS011;49822;41.468;13.560;2022-12-18T02:42:49;28.67;;;11.23;;
63316;SDS011;49822;41.468;13.560;2022-12-18T02:45:18;29.27;;;12.38;;
63316;SDS011;49822;41.468;13.560;2022-12-18T02:47:47;28.52;;;12.52;;
63316;SDS011;49822;41.468;13.560;2022-12-18T02:53:17;29.65;;;12.18;;
63316;SDS011;49822;41.468;13.560;2022-12-18T02:58:51;27.80;;;10.43;;
63316;SDS011;49822;41.468;13.560;2022-12-18T03:06:49;23.98;;;11.25;;
63316;SDS011;49822;41.468;13.560;2022-12-18T03:09:31;25.80;;;12.65;;
63316;SDS011;49822;41.468;13.560;2022-12-18T03:12:07;24.58;;;10.82;;
63316;SDS011;49822;41.468;13.560;2022-12-18T03:17:43;25.30;;;12.07;;
63316;SDS011;49822;41.468;13.560;2022-12-18T03:20:17;29.92;;;13.90;;
63316;SDS011;49822;41.468;13.560;2022-12-18T03:22:50;32.95;;;13.30;;
63316;SDS011;49822;41.468;13.560;2022-12-18T03:25:20;25.92;;;11.20;;
63316;SDS011;49822;41.468;13.560;2022-12-18T03:27:53;23.15;;;10.48;;
63316;SDS011;49822;41.468;13.560;2022-12-18T03:30:25;22.25;;;9.65;;
63316;SDS011;49822;41.468;13.560;2022-12-18T03:33:11;19.63;;;9.60;;
63316;SDS011;49822;41.468;13.560;2022-12-18T03:35:48;20.15;;;8.70;;
63316;SDS011;49822;41.468;13.560;2022-12-18T03:38:17;19.98;;;8.68;;
63316;SDS011;49822;41.468;13.560;2022-12-18T03:41:08;20.15;;;8.18;;
63316;SDS011;49822;41.468;13.560;2022-12-18T03:44:13;20.35;;;8.27;;
63316;SDS011;49822;41.468;13.560;2022-12-18T03:53:03;33.72;;;13.43;;
63316;SDS011;49822;41.468;13.560;2022-12-18T03:55:15;101.18;;;25.65;;
63316;SDS011;49822;41.468;13.560;2022-12-18T03:57:48;171.45;;;38.13;;
63316;SDS011;49822;41.468;13.560;2022-12-18T04:00:18;108.00;;;29.77;;
63316;SDS011;49822;41.468;13.560;2022-12-18T04:03:03;54.13;;;18.10;;
63316;SDS011;49822;41.468;13.560;2022-12-18T04:05:39;25.95;;;11.45;;
63316;SDS011;49822;41.468;13.560;2022-12-18T04:08:10;19.83;;;10.18;;
63316;SDS011;49822;41.468;13.560;2022-12-18T04:10:42;23.10;;;10.40;;
63316;SDS011;49822;41.468;13.560;2022-12-18T04:13:11;18.73;;;9.02;;
63316;SDS011;49822;41.468;13.560;2022-12-18T04:15:40;17.77;;;9.13;;
63316;SDS011;49822;41.468;13.560;2022-12-18T04:18:13;19.70;;;9.05;;
63316;SDS011;49822;41.468;13.560;2022-12-18T04:20:43;19.23;;;9.32;;
63316;SDS011;49822;41.468;13.560;2022-12-18T04:23:10;17.30;;;9.32;;
63316;SDS011;49822;41.468;13.560;2022-12-18T04:25:38;15.35;;;8.50;;
63316;SDS011;49822;41.468;13.560;2022-12-18T04:28:10;16.17;;;8.27;;
63316;SDS011;49822;41.468;13.560;2022-12-18T04:30:38;16.45;;;8.43;;
63316;SDS011;49822;41.468;13.560;2022-12-18T04:33:10;18.70;;;8.68;;
63316;SDS011;49822;41.468;13.560;2022-12-18T04:35:39;16.75;;;7.90;;
63316;SDS011;49822;41.468;13.560;2022-12-18T04:38:08;16.38;;;7.93;;
63316;SDS011;49822;41.468;13.560;2022-12-18T04:40:37;14.05;;;7.10;;
63316;SDS011;49822;41.468;13.560;2022-12-18T04:43:16;16.73;;;7.95;;
63316;SDS011;49822;41.468;13.560;2022-12-18T04:45:45;12.23;;;6.80;;
63316;SDS011;49822;41.468;13.560;2022-12-18T04:48:14;14.32;;;7.53;;
63316;SDS011;49822;41.468;13.560;2022-12-18T04:50:42;14.18;;;6.65;;
63316;SDS011;49822;41.468;13.560;2022-12-18T04:53:09;18.60;;;8.60;;
63316;SDS011;49822;41.468;13.560;2022-12-18T04:55:37;17.63;;;8.88;;
63316;SDS011;49822;41.468;13.560;2022-12-18T04:58:05;15.73;;;8.05;;
63316;SDS011;49822;41.468;13.560;2022-12-18T05:00:32;14.27;;;7.05;;
63316;SDS011;49822;41.468;13.560;2022-12-18T05:03:02;14.07;;;7.22;;
63316;SDS011;49822;41.468;13.560;2022-12-18T05:05:30;14.27;;;6.78;;
63316;SDS011;49822;41.468;13.560;2022-12-18T05:07:58;17.17;;;7.20;;
63316;SDS011;49822;41.468;13.560;2022-12-18T05:10:26;14.65;;;7.05;;
63316;SDS011;49822;41.468;13.560;2022-12-18T05:12:57;16.55;;;7.07;;
63316;SDS011;49822;41.468;13.560;2022-12-18T05:15:28;14.13;;;7.00;;
63316;SDS011;49822;41.468;13.560;2022-12-18T05:18:00;13.68;;;6.43;;
63316;SDS011;49822;41.468;13.560;2022-12-18T05:20:29;13.85;;;6.72;;
63316;SDS011;49822;41.468;13.560;2022-12-18T05:22:57;14.48;;;6.78;;
63316;SDS011;49822;41.468;13.560;2022-12-18T05:25:24;13.30;;;7.03;;
63316;SDS011;49822;41.468;13.560;2022-12-18T05:27:52;34.78;;;30.55;;
63316;SDS011;49822;41.468;13.560;2022-12-18T05:30:20;51.38;;;41.55;;
63316;SDS011;49822;41.468;13.560;2022-12-18T05:32:50;95.40;;;57.28;;
63316;SDS011;49822;41.468;13.560;2022-12-18T05:35:19;64.72;;;48.53;;
63316;SDS011;49822;41.468;13.560;2022-12-18T05:37:46;65.72;;;50.05;;
63316;SDS011;49822;41.468;13.560;2022-12-18T05:40:14;15.35;;;7.57;;
63316;SDS011;49822;41.468;13.560;2022-12-18T05:42:41;14.25;;;6.75;;
63316;SDS011;49822;41.468;13.560;2022-12-18T05:45:08;49.80;;;41.63;;
63316;SDS011;49822;41.468;13.560;2022-12-18T05:47:36;13.75;;;7.28;;
63316;SDS011;49822;41.468;13.560;2022-12-18T05:50:04;17.38;;;6.95;;
63316;SDS011;49822;41.468;13.560;2022-12-18T05:52:33;41.83;;;37.42;;
63316;SDS011;49822;41.468;13.560;2022-12-18T05:55:00;53.90;;;43.10;;
63316;SDS011;49822;41.468;13.560;2022-12-18T05:57:28;13.10;;;6.82;;
63316;SDS011;49822;41.468;13.560;2022-12-18T05:59:55;16.27;;;7.80;;
63316;SDS011;49822;41.468;13.560;2022-12-18T06:02:23;20.08;;;10.20;;
63316;SDS011;49822;41.468;13.560;2022-12-18T06:04:51;20.17;;;10.20;;
63316;SDS011;49822;41.468;13.560;2022-12-18T06:07:19;18.25;;;9.52;;
63316;SDS011;49822;41.468;13.560;2022-12-18T06:09:46;16.77;;;8.10;;
63316;SDS011;49822;41.468;13.560;2022-12-18T06:12:14;16.58;;;8.15;;
63316;SDS011;49822;41.468;13.560;2022-12-18T06:14:41;13.45;;;7.28;;
63316;SDS011;49822;41.468;13.560;2022-12-18T06:17:08;14.82;;;7.75;;
63316;SDS011;49822;41.468;13.560;2022-12-18T06:19:36;11.63;;;7.00;;
63316;SDS011;49822;41.468;13.560;2022-12-18T06:22:03;14.07;;;6.72;;
63316;SDS011;49822;41.468;13.560;2022-12-18T06:24:30;13.57;;;7.25;;
63316;SDS011;49822;41.468;13.560;2022-12-18T06:26:58;19.98;;;9.73;;
63316;SDS011;49822;41.468;13.560;2022-12-18T06:29:25;19.35;;;8.68;;
63316;SDS011;49822;41.468;13.560;2022-12-18T06:31:52;19.98;;;9.63;;
63316;SDS011;49822;41.468;13.560;2022-12-18T06:34:20;14.88;;;8.80;;
63316;SDS011;49822;41.468;13.560;2022-12-18T06:36:48;17.05;;;9.05;;
63316;SDS011;49822;41.468;13.560;2022-12-18T06:39:15;17.23;;;9.43;;
63316;SDS011;49822;41.468;13.560;2022-12-18T06:41:43;19.52;;;8.93;;
63316;SDS011;49822;41.468;13.560;2022-12-18T06:44:11;12.60;;;6.35;;
63316;SDS011;49822;41.468;13.560;2022-12-18T06:46:39;13.93;;;7.57;;
63316;SDS011;49822;41.468;13.560;2022-12-18T06:49:07;17.27;;;8.18;;
63316;SDS011;49822;41.468;13.560;2022-12-18T06:51:35;12.63;;;6.90;;
63316;SDS011;49822;41.468;13.560;2022-12-18T06:54:03;19.30;;;8.45;;
63316;SDS011;49822;41.468;13.560;2022-12-18T06:56:31;14.10;;;7.55;;
63316;SDS011;49822;41.468;13.560;2022-12-18T06:58:58;13.13;;;6.85;;
63316;SDS011;49822;41.468;13.560;2022-12-18T07:01:25;13.35;;;7.55;;
63316;SDS011;49822;41.468;13.560;2022-12-18T07:03:54;16.58;;;7.30;;
63316;SDS011;49822;41.468;13.560;2022-12-18T07:06:23;13.35;;;7.53;;
63316;SDS011;49822;41.468;13.560;2022-12-18T07:08:53;32.00;;;13.13;;
63316;SDS011;49822;41.468;13.560;2022-12-18T07:11:22;20.30;;;10.07;;
63316;SDS011;49822;41.468;13.560;2022-12-18T07:13:51;16.10;;;8.50;;
63316;SDS011;49822;41.468;13.560;2022-12-18T07:16:20;33.58;;;23.10;;
63316;SDS011;49822;41.468;13.560;2022-12-18T07:18:51;65.97;;;31.92;;
63316;SDS011;49822;41.468;13.560;2022-12-18T07:21:21;101.07;;;48.05;;
63316;SDS011;49822;41.468;13.560;2022-12-18T07:23:49;93.90;;;49.72;;
63316;SDS011;49822;41.468;13.560;2022-12-18T07:26:19;33.22;;;22.70;;
63316;SDS011;49822;41.468;13.560;2022-12-18T07:28:48;22.80;;;12.40;;
63316;SDS011;49822;41.468;13.560;2022-12-18T07:31:17;42.45;;;21.40;;
63316;SDS011;49822;41.468;13.560;2022-12-18T07:33:48;99.55;;;35.53;;
63316;SDS011;49822;41.468;13.560;2022-12-18T07:36:18;99.93;;;35.22;;
63316;SDS011;49822;41.468;13.560;2022-12-18T07:38:47;42.95;;;18.85;;
63316;SDS011;49822;41.468;13.560;2022-12-18T07:41:15;46.17;;;22.05;;
63316;SDS011;49822;41.468;13.560;2022-12-18T07:43:43;22.20;;;12.43;;
63316;SDS011;49822;41.468;13.560;2022-12-18T07:46:10;17.58;;;10.02;;
63316;SDS011;49822;41.468;13.560;2022-12-18T07:48:40;20.50;;;10.45;;
63316;SDS011;49822;41.468;13.560;2022-12-18T07:51:13;17.42;;;8.98;;
63316;SDS011;49822;41.468;13.560;2022-12-18T07:53:42;16.67;;;9.23;;
63316;SDS011;49822;41.468;13.560;2022-12-18T07:56:10;18.83;;;10.60;;
63316;SDS011;49822;41.468;13.560;2022-12-18T07:58:56;22.73;;;10.50;;
63316;SDS011;49822;41.468;13.560;2022-12-18T08:01:25;15.80;;;8.52;;
63316;SDS011;49822;41.468;13.560;2022-12-18T08:03:54;16.30;;;7.55;;
63316;SDS011;49822;41.468;13.560;2022-12-18T08:06:21;13.60;;;6.80;;
63316;SDS011;49822;41.468;13.560;2022-12-18T08:08:51;16.85;;;9.63;;
63316;SDS011;49822;41.468;13.560;2022-12-18T08:11:19;31.08;;;17.77;;
63316;SDS011;49822;41.468;13.560;2022-12-18T08:13:48;40.42;;;28.48;;
63316;SDS011;49822;41.468;13.560;2022-12-18T08:16:17;43.15;;;29.23;;
63316;SDS011;49822;41.468;13.560;2022-12-18T08:18:47;64.07;;;46.40;;
63316;SDS011;49822;41.468;13.560;2022-12-18T08:23:46;18.38;;;11.52;;
63316;SDS011;49822;41.468;13.560;2022-12-18T08:26:16;16.15;;;9.32;;
63316;SDS011;49822;41.468;13.560;2022-12-18T08:28:44;26.42;;;15.88;;
63316;SDS011;49822;41.468;13.560;2022-12-18T08:31:12;28.73;;;19.30;;
63316;SDS011;49822;41.468;13.560;2022-12-18T08:33:40;21.73;;;13.50;;
63316;SDS011;49822;41.468;13.560;2022-12-18T08:36:10;20.05;;;9.90;;
63316;SDS011;49822;41.468;13.560;2022-12-18T08:38:37;14.98;;;8.50;;
63316;SDS011;49822;41.468;13.560;2022-12-18T08:41:05;22.70;;;12.25;;
63316;SDS011;49822;41.468;13.560;2022-12-18T08:43:37;19.83;;;11.73;;
63316;SDS011;49822;41.468;13.560;2022-12-18T08:46:32;17.67;;;10.30;;
63316;SDS011;49822;41.468;13.560;2022-12-18T08:49:02;18.95;;;10.90;;
63316;SDS011;49822;41.468;13.560;2022-12-18T08:51:30;19.48;;;10.55;;
63316;SDS011;49822;41.468;13.560;2022-12-18T08:53:59;19.27;;;11.00;;
63316;SDS011;49822;41.468;13.560;2022-12-18T08:56:26;19.02;;;10.20;;
63316;SDS011;49822;41.468;13.560;2022-12-18T08:58:54;55.45;;;22.17;;
63316;SDS011;49822;41.468;13.560;2022-12-18T09:01:28;77.63;;;27.70;;
63316;SDS011;49822;41.468;13.560;2022-12-18T09:03:57;51.30;;;21.85;;
63316;SDS011;49822;41.468;13.560;2022-12-18T09:06:25;28.92;;;13.85;;
63316;SDS011;49822;41.468;13.560;2022-12-18T09:08:53;38.05;;;19.70;;
63316;SDS011;49822;41.468;13.560;2022-12-18T09:11:22;29.55;;;15.93;;
63316;SDS011;49822;41.468;13.560;2022-12-18T09:13:52;18.50;;;10.38;;
63316;SDS011;49822;41.468;13.560;2022-12-18T09:16:21;17.33;;;9.88;;
63316;SDS011;49822;41.468;13.560;2022-12-18T09:18:57;18.73;;;9.10;;
63316;SDS011;49822;41.468;13.560;2022-12-18T09:21:29;17.80;;;8.80;;
63316;SDS011;49822;41.468;13.560;2022-12-18T09:24:02;20.92;;;10.18;;
63316;SDS011;49822;41.468;13.560;2022-12-18T09:26:34;20.05;;;9.30;;
63316;SDS011;49822;41.468;13.560;2022-12-18T09:29:02;18.48;;;9.20;;
63316;SDS011;49822;41.468;13.560;2022-12-18T09:31:30;14.90;;;8.35;;
63316;SDS011;49822;41.468;13.560;2022-12-18T09:33:58;21.23;;;11.07;;
63316;SDS011;49822;41.468;13.560;2022-12-18T09:36:26;19.08;;;9.65;;
63316;SDS011;49822;41.468;13.560;2022-12-18T09:38:57;20.77;;;10.43;;
63316;SDS011;49822;41.468;13.560;2022-12-18T09:46:49;20.33;;;9.55;;
63316;SDS011;49822;41.468;13.560;2022-12-18T09:49:40;22.35;;;10.82;;
63316;SDS011;49822;41.468;13.560;2022-12-18T09:54:56;21.10;;;10.65;;
63316;SDS011;49822;41.468;13.560;2022-12-18T09:57:26;28.10;;;15.05;;
63316;SDS011;49822;41.468;13.560;2022-12-18T10:00:01;102.68;;;36.70;;
63316;SDS011;49822;41.468;13.560;2022-12-18T10:02:37;43.78;;;20.63;;
63316;SDS011;49822;41.468;13.560;2022-12-18T10:05:09;22.92;;;12.60;;
63316;SDS011;49822;41.468;13.560;2022-12-18T10:07:55;23.52;;;11.43;;
63316;SDS011;49822;41.468;13.560;2022-12-18T10:10:46;20.67;;;11.23;;
63316;SDS011;49822;41.468;13.560;2022-12-18T10:16:30;26.77;;;12.88;;
63316;SDS011;49822;41.468;13.560;2022-12-18T10:25:14;89.63;;;30.65;;
63316;SDS011;49822;41.468;13.560;2022-12-18T10:27:47;64.55;;;26.45;;
63316;SDS011;49822;41.468;13.560;2022-12-18T10:30:20;35.35;;;17.73;;
63316;SDS011;49822;41.468;13.560;2022-12-18T10:32:51;24.83;;;13.90;;
63316;SDS011;49822;41.468;13.560;2022-12-18T10:35:24;37.03;;;16.13;;
63316;SDS011;49822;41.468;13.560;2022-12-18T10:38:00;34.60;;;18.00;;
63316;SDS011;49822;41.468;13.560;2022-12-18T10:40:52;37.47;;;20.00;;
63316;SDS011;49822;41.468;13.560;2022-12-18T10:43:27;36.17;;;18.23;;
63316;SDS011;49822;41.468;13.560;2022-12-18T10:56:34;48.15;;;23.13;;
63316;SDS011;49822;41.468;13.560;2022-12-18T10:59:06;41.75;;;20.50;;
63316;SDS011;49822;41.468;13.560;2022-12-18T11:01:50;45.72;;;21.17;;
63316;SDS011;49822;41.468;13.560;2022-12-18T11:04:28;44.95;;;22.08;;
63316;SDS011;49822;41.468;13.560;2022-12-18T11:07:04;37.47;;;18.33;;
63316;SDS011;49822;41.468;13.560;2022-12-18T11:09:34;40.78;;;20.67;;
63316;SDS011;49822;41.468;13.560;2022-12-18T11:12:04;32.25;;;16.50;;
63316;SDS011;49822;41.468;13.560;2022-12-18T11:14:46;41.10;;;20.13;;
63316;SDS011;49822;41.468;13.560;2022-12-18T11:17:49;48.42;;;20.77;;
63316;SDS011;49822;41.468;13.560;2022-12-18T11:23:21;42.58;;;19.80;;
63316;SDS011;49822;41.468;13.560;2022-12-18T11:25:58;40.17;;;19.15;;
63316;SDS011;49822;41.468;13.560;2022-12-18T11:28:29;50.30;;;24.40;;
63316;SDS011;49822;41.468;13.560;2022-12-18T11:33:50;47.20;;;24.40;;
63316;SDS011;49822;41.468;13.560;2022-12-18T11:36:44;36.35;;;18.45;;
63316;SDS011;49822;41.468;13.560;2022-12-18T11:42:20;38.25;;;18.50;;
63316;SDS011;49822;41.468;13.560;2022-12-18T11:47:33;47.70;;;23.90;;
63316;SDS011;49822;41.468;13.560;2022-12-18T11:50:11;41.25;;;21.30;;
63316;SDS011;49822;41.468;13.560;2022-12-18T11:52:42;44.45;;;21.40;;
63316;SDS011;49822;41.468;13.560;2022-12-18T11:55:13;50.30;;;25.23;;
63316;SDS011;49822;41.468;13.560;2022-12-18T11:58:04;47.85;;;21.63;;
63316;SDS011;49822;41.468;13.560;2022-12-18T12:00:45;40.95;;;19.83;;
63316;SDS011;49822;41.468;13.560;2022-12-18T12:03:39;45.05;;;20.88;;
63316;SDS011;49822;41.468;13.560;2022-12-18T12:06:17;44.15;;;22.60;;
63316;SDS011;49822;41.468;13.560;2022-12-18T12:09:04;48.78;;;22.45;;
63316;SDS011;49822;41.468;13.560;2022-12-18T12:12:33;153.20;;;51.17;;
63316;SDS011;49822;41.468;13.560;2022-12-18T12:15:13;67.93;;;28.88;;
63316;SDS011;49822;41.468;13.560;2022-12-18T12:21:05;57.10;;;25.35;;
63316;SDS011;49822;41.468;13.560;2022-12-18T12:23:44;52.95;;;26.67;;
63316;SDS011;49822;41.468;13.560;2022-12-18T12:26:27;45.45;;;22.60;;
63316;SDS011;49822;41.468;13.560;2022-12-18T12:40:37;44.30;;;21.00;;
63316;SDS011;49822;41.468;13.560;2022-12-18T12:43:27;38.65;;;20.02;;
63316;SDS011;49822;41.468;13.560;2022-12-18T12:46:04;39.38;;;19.48;;
63316;SDS011;49822;41.468;13.560;2022-12-18T12:48:45;37.45;;;20.13;;
63316;SDS011;49822;41.468;13.560;2022-12-18T12:53:48;36.28;;;19.15;;
63316;SDS011;49822;41.468;13.560;2022-12-18T12:56:20;39.97;;;21.00;;
63316;SDS011;49822;41.468;13.560;2022-12-18T13:01:25;38.83;;;20.95;;
63316;SDS011;49822;41.468;13.560;2022-12-18T13:04:02;35.95;;;20.27;;
63316;SDS011;49822;41.468;13.560;2022-12-18T13:06:47;38.90;;;20.63;;
63316;SDS011;49822;41.468;13.560;2022-12-18T13:09:23;41.13;;;20.50;;
63316;SDS011;49822;41.468;13.560;2022-12-18T13:11:51;36.00;;;19.70;;
63316;SDS011;49822;41.468;13.560;2022-12-18T13:14:37;39.42;;;20.48;;
63316;SDS011;49822;41.468;13.560;2022-12-18T13:17:17;40.15;;;19.30;;
63316;SDS011;49822;41.468;13.560;2022-12-18T13:20:10;36.08;;;19.23;;
63316;SDS011;49822;41.468;13.560;2022-12-18T13:22:48;35.97;;;19.10;;
63316;SDS011;49822;41.468;13.560;2022-12-18T13:25:27;35.20;;;19.58;;
63316;SDS011;49822;41.468;13.560;2022-12-18T13:27:58;38.38;;;22.00;;
63316;SDS011;49822;41.468;13.560;2022-12-18T13:41:00;47.65;;;27.73;;
63316;SDS011;49822;41.468;13.560;2022-12-18T13:43:31;43.08;;;25.42;;
63316;SDS011;49822;41.468;13.560;2022-12-18T13:51:53;38.95;;;21.90;;
63316;SDS011;49822;41.468;13.560;2022-12-18T13:54:27;44.78;;;27.63;;
63316;SDS011;49822;41.468;13.560;2022-12-18T13:57:04;41.58;;;24.77;;
63316;SDS011;49822;41.468;13.560;2022-12-18T13:59:39;51.70;;;28.45;;
63316;SDS011;49822;41.468;13.560;2022-12-18T14:02:14;49.50;;;28.65;;
63316;SDS011;49822;41.468;13.560;2022-12-18T14:04:47;53.95;;;30.13;;
63316;SDS011;49822;41.468;13.560;2022-12-18T14:07:18;51.22;;;27.95;;
63316;SDS011;49822;41.468;13.560;2022-12-18T14:10:01;50.65;;;27.00;;
63316;SDS011;49822;41.468;13.560;2022-12-18T14:12:50;54.90;;;30.77;;
63316;SDS011;49822;41.468;13.560;2022-12-18T14:18:12;47.17;;;27.63;;
63316;SDS011;49822;41.468;13.560;2022-12-18T14:20:44;45.67;;;26.77;;
63316;SDS011;49822;41.468;13.560;2022-12-18T14:23:54;70.95;;;53.50;;
63316;SDS011;49822;41.468;13.560;2022-12-18T14:26:22;95.35;;;62.75;;
63316;SDS011;49822;41.468;13.560;2022-12-18T14:28:57;46.70;;;30.80;;
63316;SDS011;49822;41.468;13.560;2022-12-18T14:31:29;57.08;;;43.63;;
63316;SDS011;49822;41.468;13.560;2022-12-18T14:33:58;123.10;;;74.45;;
63316;SDS011;49822;41.468;13.560;2022-12-18T14:36:28;33.00;;;20.30;;
63316;SDS011;49822;41.468;13.560;2022-12-18T14:38:57;31.83;;;17.02;;
63316;SDS011;49822;41.468;13.560;2022-12-18T14:41:36;168.02;;;83.45;;
63316;SDS011;49822;41.468;13.560;2022-12-18T14:44:05;505.15;;;171.75;;
63316;SDS011;49822;41.468;13.560;2022-12-18T14:49:26;419.77;;;145.82;;
63316;SDS011;49822;41.468;13.560;2022-12-18T14:52:03;495.50;;;171.25;;
63316;SDS011;49822;41.468;13.560;2022-12-18T14:54:33;409.27;;;138.70;;
63316;SDS011;49822;41.468;13.560;2022-12-18T14:57:05;318.17;;;115.97;;
63316;SDS011;49822;41.468;13.560;2022-12-18T14:59:45;419.98;;;141.35;;
63316;SDS011;49822;41.468;13.560;2022-12-18T15:02:22;32.60;;;19.05;;
63316;SDS011;49822;41.468;13.560;2022-12-18T15:07:42;55.10;;;28.10;;
63316;SDS011;49822;41.468;13.560;2022-12-18T15:12:47;429.85;;;144.18;;
63316;SDS011;49822;41.468;13.560;2022-12-18T15:23:26;28.40;;;15.23;;
63316;SDS011;49822;41.468;13.560;2022-12-18T15:26:18;171.20;;;79.78;;
63316;SDS011;49822;41.468;13.560;2022-12-18T15:31:28;194.50;;;86.15;;
63316;SDS011;49822;41.468;13.560;2022-12-18T15:36:34;172.55;;;77.90;;
63316;SDS011;49822;41.468;13.560;2022-12-18T15:39:03;22.35;;;11.88;;
63316;SDS011;49822;41.468;13.560;2022-12-18T15:41:33;30.33;;;13.73;;
63316;SDS011;49822;41.468;13.560;2022-12-18T15:44:02;35.30;;;18.83;;
63316;SDS011;49822;41.468;13.560;2022-12-18T15:46:47;33.50;;;17.58;;
63316;SDS011;49822;41.468;13.560;2022-12-18T15:49:14;31.67;;;15.60;;
63316;SDS011;49822;41.468;13.560;2022-12-18T15:51:41;33.42;;;15.50;;
63316;SDS011;49822;41.468;13.560;2022-12-18T15:54:11;24.50;;;12.80;;
63316;SDS011;49822;41.468;13.560;2022-12-18T15:56:42;27.65;;;11.75;;
63316;SDS011;49822;41.468;13.560;2022-12-18T15:59:29;22.33;;;10.95;;
63316;SDS011;49822;41.468;13.560;2022-12-18T16:01:56;23.25;;;11.50;;
63316;SDS011;49822;41.468;13.560;2022-12-18T16:04:27;21.67;;;11.27;;
63316;SDS011;49822;41.468;13.560;2022-12-18T16:06:55;24.38;;;11.23;;
63316;SDS011;49822;41.468;13.560;2022-12-18T16:09:40;22.98;;;11.27;;
63316;SDS011;49822;41.468;13.560;2022-12-18T16:12:14;21.23;;;10.70;;
63316;SDS011;49822;41.468;13.560;2022-12-18T16:14:48;32.75;;;16.88;;
63316;SDS011;49822;41.468;13.560;2022-12-18T16:17:17;43.10;;;21.20;;
63316;SDS011;49822;41.468;13.560;2022-12-18T16:19:45;47.08;;;22.00;;
63316;SDS011;49822;41.468;13.560;2022-12-18T16:22:20;33.83;;;16.50;;
63316;SDS011;49822;41.468;13.560;2022-12-18T16:24:50;38.90;;;17.88;;
63316;SDS011;49822;41.468;13.560;2022-12-18T16:27:19;162.90;;;56.17;;
63316;SDS011;49822;41.468;13.560;2022-12-18T16:29:47;141.30;;;52.67;;
63316;SDS011;49822;41.468;13.560;2022-12-18T16:32:19;56.63;;;30.08;;
63316;SDS011;49822;41.468;13.560;2022-12-18T16:34:49;37.95;;;19.05;;
63316;SDS011;49822;41.468;13.560;2022-12-18T16:37:16;29.08;;;14.23;;
63316;SDS011;49822;41.468;13.560;2022-12-18T16:39:43;30.85;;;15.38;;
63316;SDS011;49822;41.468;13.560;2022-12-18T16:42:15;32.03;;;15.65;;
63316;SDS011;49822;41.468;13.560;2022-12-18T16:44:47;24.75;;;12.80;;
63316;SDS011;49822;41.468;13.560;2022-12-18T16:47:15;27.38;;;13.82;;
63316;SDS011;49822;41.468;13.560;2022-12-18T16:49:43;25.33;;;13.02;;
63316;SDS011;49822;41.468;13.560;2022-12-18T16:52:12;25.23;;;11.13;;
63316;SDS011;49822;41.468;13.560;2022-12-18T16:54:40;22.73;;;12.50;;
63316;SDS011;49822;41.468;13.560;2022-12-18T16:57:09;29.60;;;12.70;;
63316;SDS011;49822;41.468;13.560;2022-12-18T16:59:43;22.60;;;12.55;;
63316;SDS011;49822;41.468;13.560;2022-12-18T17:02:12;33.63;;;16.42;;
63316;SDS011;49822;41.468;13.560;2022-12-18T17:04:44;54.15;;;26.45;;
63316;SDS011;49822;41.468;13.560;2022-12-18T17:07:12;58.05;;;29.30;;
63316;SDS011;49822;41.468;13.560;2022-12-18T17:09:40;58.58;;;30.63;;
63316;SDS011;49822;41.468;13.560;2022-12-18T17:12:08;22.85;;;13.45;;
63316;SDS011;49822;41.468;13.560;2022-12-18T17:14:36;36.85;;;17.63;;